createdAt,value
2022-12-13T00:00:34.467Z,35.23
2022-12-13T00:03:17.155Z,32.50
2022-12-13T00:05:59.374Z,36.10
2022-12-13T00:08:49.165Z,35.85
2022-12-13T00:11:38.206Z,39.28
2022-12-13T00:14:23.486Z,38.53
2022-12-13T00:17:12.112Z,44.45
2022-12-13T00:19:57.798Z,45.85
2022-12-13T00:22:47.118Z,42.67
2022-12-13T00:25:29.498Z,52.53
2022-12-13T00:28:18.217Z,47.45
2022-12-13T00:31:35.244Z,43.58
2022-12-13T00:34:14.199Z,43.38
2022-12-13T00:37:00.059Z,41.25
2022-12-13T00:39:49.209Z,41.03
2022-12-13T00:42:31.481Z,38.13
2022-12-13T00:45:21.076Z,49.33
2022-12-13T00:48:10.064Z,37.30
2022-12-13T00:50:58.443Z,34.92
2022-12-13T00:53:41.202Z,31.98
2022-12-13T00:56:26.652Z,29.38
2022-12-13T00:59:15.207Z,28.13
2022-12-13T01:01:57.591Z,32.58
2022-12-13T01:04:46.208Z,35.80
2022-12-13T01:07:28.447Z,33.08
2022-12-13T01:10:18.269Z,34.58
2022-12-13T01:13:06.451Z,42.22
2022-12-13T01:15:53.217Z,34.58
2022-12-13T01:18:42.206Z,43.97
2022-12-13T01:21:27.486Z,38.90
2022-12-13T01:24:19.152Z,37.08
2022-12-13T01:27:02.470Z,34.72
2022-12-13T01:29:51.161Z,34.67
2022-12-13T01:32:33.497Z,28.02
2022-12-13T01:35:25.113Z,35.72
2022-12-13T01:38:15.857Z,36.80
2022-12-13T01:41:17.375Z,43.58
2022-12-13T01:44:09.465Z,34.65
2022-12-13T01:46:52.502Z,31.30
2022-12-13T01:49:34.359Z,34.90
2022-12-13T01:52:28.258Z,35.00
2022-12-13T01:58:03.223Z,35.25
2022-12-13T02:00:47.052Z,40.85
2022-12-13T02:03:37.055Z,38.58
2022-12-13T02:06:33.458Z,41.67
2022-12-13T02:09:17.061Z,43.17
2022-12-13T02:12:05.479Z,41.60
2022-12-13T02:14:49.190Z,42.30
2022-12-13T02:18:06.537Z,34.60
2022-12-13T02:20:54.061Z,42.95
2022-12-13T02:23:57.439Z,42.95
2022-12-13T02:27:03.164Z,38.25
2022-12-13T02:29:51.481Z,41.15
2022-12-13T02:32:34.133Z,39.38
2022-12-13T02:35:30.618Z,40.93
2022-12-13T02:38:26.267Z,39.40
2022-12-13T02:41:48.013Z,44.92
2022-12-13T02:44:45.173Z,39.42
2022-12-13T02:47:38.214Z,37.75
2022-12-13T02:50:28.455Z,42.10
2022-12-13T02:53:13.055Z,35.58
2022-12-13T02:55:55.414Z,40.65
2022-12-13T02:58:50.210Z,34.47
2022-12-13T03:01:52.440Z,36.88
2022-12-13T03:05:30.173Z,39.22
2022-12-13T03:08:40.177Z,31.05
2022-12-13T03:11:52.015Z,35.88
2022-12-13T03:14:35.147Z,38.53
2022-12-13T03:17:27.169Z,33.20
2022-12-13T03:20:22.450Z,32.03
2022-12-13T03:23:12.133Z,33.47
2022-12-13T03:25:57.443Z,36.15
2022-12-13T03:28:47.055Z,32.95
2022-12-13T03:31:36.213Z,36.92
2022-12-13T03:34:26.051Z,29.08
2022-12-13T03:37:34.122Z,40.97
2022-12-13T03:40:16.547Z,39.35
2022-12-13T03:43:07.176Z,31.17
2022-12-13T03:45:55.484Z,31.83
2022-12-13T03:48:38.228Z,29.67
2022-12-13T03:51:20.385Z,37.15
2022-12-13T03:54:09.148Z,31.67
2022-12-13T03:56:58.037Z,42.85
2022-12-13T03:59:47.201Z,37.58
2022-12-13T04:02:36.221Z,31.38
2022-12-13T04:05:18.645Z,43.05
2022-12-13T04:08:08.168Z,41.65
2022-12-13T04:11:23.113Z,37.25
2022-12-13T04:14:12.281Z,34.55
2022-12-13T04:17:04.491Z,35.10
2022-12-13T04:19:53.183Z,65.32
2022-12-13T04:22:35.444Z,46.83
2022-12-13T04:25:24.047Z,49.17
2022-12-13T04:28:06.472Z,53.08
2022-12-13T04:30:55.046Z,39.63
2022-12-13T04:33:37.527Z,55.83
2022-12-13T04:36:32.139Z,39.50
2022-12-13T04:39:22.812Z,35.25
2022-12-13T04:42:12.234Z,38.75
2022-12-13T04:44:55.499Z,37.45
2022-12-13T04:47:44.187Z,49.03
2022-12-13T04:50:27.466Z,30.35
2022-12-13T04:53:16.144Z,39.90
2022-12-13T04:55:58.437Z,34.78
2022-12-13T04:58:47.091Z,34.58
2022-12-13T05:01:29.428Z,34.78
2022-12-13T05:04:18.066Z,38.20
2022-12-13T05:07:00.477Z,41.50
2022-12-13T05:09:49.254Z,44.05
2022-12-13T05:12:31.596Z,40.03
2022-12-13T05:15:20.135Z,41.72
2022-12-13T05:18:11.032Z,37.13
2022-12-13T05:20:54.139Z,41.80
2022-12-13T05:23:43.125Z,30.90
2022-12-13T05:26:31.461Z,39.13
2022-12-13T05:29:14.175Z,35.47
2022-12-13T05:31:56.446Z,35.25
2022-12-13T05:34:45.161Z,34.47
2022-12-13T05:37:35.161Z,36.42
2022-12-13T05:40:17.453Z,38.20
2022-12-13T05:43:21.900Z,24.00
2022-12-13T05:46:04.406Z,28.70
2022-12-13T05:48:53.164Z,36.10
2022-12-13T05:51:35.381Z,31.42
2022-12-13T05:54:24.044Z,31.17
2022-12-13T05:57:06.565Z,25.67
2022-12-13T05:59:55.114Z,36.80
2022-12-13T06:02:48.516Z,29.90
2022-12-13T06:05:38.159Z,24.73
2022-12-13T06:08:25.041Z,30.67
2022-12-13T06:11:31.641Z,29.20
2022-12-13T06:14:22.505Z,32.63
2022-12-13T06:17:12.116Z,30.95
2022-12-13T06:19:54.400Z,33.17
2022-12-13T06:22:43.016Z,30.85
2022-12-13T06:25:31.542Z,31.02
2022-12-13T06:28:21.127Z,27.25
2022-12-13T06:31:03.475Z,28.30
2022-12-13T06:33:52.110Z,25.08
2022-12-13T06:36:34.540Z,31.08
2022-12-13T06:39:23.111Z,27.60
2022-12-13T06:42:07.146Z,27.00
2022-12-13T06:44:59.048Z,31.48
2022-12-13T06:47:48.127Z,20.52
2022-12-13T06:50:37.023Z,36.03
2022-12-13T06:53:26.060Z,27.10
2022-12-13T06:56:11.558Z,22.58
2022-12-13T06:59:01.668Z,22.02
2022-12-13T07:01:50.903Z,21.63
2022-12-13T07:04:34.164Z,18.73
2022-12-13T07:07:23.131Z,17.33
2022-12-13T07:10:05.433Z,17.73
2022-12-13T07:12:56.083Z,16.60
2022-12-13T07:15:38.479Z,22.42
2022-12-13T07:18:27.147Z,20.60
2022-12-13T07:21:21.743Z,15.40
2022-12-13T07:24:11.046Z,19.17
2022-12-13T07:27:00.164Z,19.13
2022-12-13T07:29:42.763Z,17.55
2022-12-13T07:32:32.044Z,16.87
2022-12-13T07:35:14.448Z,16.45
2022-12-13T07:38:03.151Z,12.23
2022-12-13T07:40:47.491Z,21.92
2022-12-13T07:43:37.021Z,14.02
2022-12-13T07:46:23.582Z,17.60
2022-12-13T07:49:15.140Z,19.85
2022-12-13T07:51:58.109Z,14.13
2022-12-13T07:54:48.110Z,14.85
2022-12-13T07:57:36.354Z,15.93
2022-12-13T08:00:19.280Z,13.23
2022-12-13T08:03:12.210Z,21.10
2022-12-13T08:06:19.178Z,18.65
2022-12-13T08:09:01.295Z,17.05
2022-12-13T08:11:50.207Z,12.38
2022-12-13T08:14:32.609Z,15.23
2022-12-13T08:17:21.201Z,13.70
2022-12-13T08:20:09.426Z,11.48
2022-12-13T08:22:53.136Z,12.70
2022-12-13T08:25:52.753Z,22.17
2022-12-13T08:28:36.199Z,18.13
2022-12-13T08:31:18.367Z,19.83
2022-12-13T08:34:07.194Z,16.48
2022-12-13T08:36:49.471Z,10.90
2022-12-13T08:39:38.189Z,16.27
2022-12-13T08:42:33.950Z,19.70
2022-12-13T08:45:23.255Z,18.55
2022-12-13T08:48:06.392Z,12.63
2022-12-13T08:50:55.034Z,18.20
2022-12-13T08:53:40.791Z,15.02
2022-12-13T08:56:30.084Z,13.18
2022-12-13T08:59:12.435Z,17.92
2022-12-13T09:02:05.477Z,20.98
2022-12-13T09:04:54.103Z,16.83
2022-12-13T09:07:44.087Z,14.45
2022-12-13T09:10:38.411Z,15.00
2022-12-13T09:13:31.095Z,19.70
2022-12-13T09:16:24.486Z,20.97
2022-12-13T09:19:25.706Z,15.10
2022-12-13T09:22:15.072Z,20.05
2022-12-13T09:24:57.542Z,15.70
2022-12-13T09:27:52.052Z,18.63
2022-12-13T09:30:34.376Z,16.58
2022-12-13T09:33:29.977Z,12.80
2022-12-13T09:36:26.071Z,13.05
2022-12-13T09:39:14.970Z,18.92
2022-12-13T09:42:13.079Z,17.05
2022-12-13T09:45:03.136Z,12.48
2022-12-13T09:48:01.952Z,19.42
2022-12-13T09:51:18.137Z,25.25
2022-12-13T09:53:58.939Z,18.73
2022-12-13T09:56:51.630Z,13.07
2022-12-13T09:59:40.147Z,15.93
2022-12-13T10:02:36.641Z,18.33
2022-12-13T10:05:40.150Z,14.75
2022-12-13T10:08:31.972Z,21.95
2022-12-13T10:11:21.301Z,17.77
2022-12-13T10:14:21.689Z,13.25
2022-12-13T10:17:15.153Z,19.80
2022-12-13T10:20:03.350Z,14.20
2022-12-13T10:23:01.569Z,16.35
2022-12-13T10:26:02.897Z,15.75
2022-12-13T10:28:52.075Z,19.23
2022-12-13T10:31:58.897Z,23.13
2022-12-13T10:34:52.122Z,14.82
2022-12-13T10:37:41.486Z,19.13
2022-12-13T10:40:43.102Z,17.60
2022-12-13T10:43:42.943Z,19.20
2022-12-13T10:46:32.166Z,21.73
2022-12-13T10:49:32.395Z,11.80
2022-12-13T10:52:43.459Z,14.80
2022-12-13T10:55:45.945Z,20.40
2022-12-13T10:58:37.622Z,17.17
2022-12-13T11:01:38.084Z,21.55
2022-12-13T11:04:40.093Z,18.67
2022-12-13T11:07:39.494Z,19.90
2022-12-13T11:10:37.133Z,20.25
2022-12-13T11:13:40.014Z,20.85
2022-12-13T11:16:50.015Z,16.40
2022-12-13T11:19:52.343Z,26.98
2022-12-13T11:22:45.086Z,26.80
2022-12-13T11:25:41.147Z,21.48
2022-12-13T11:28:41.574Z,20.02
2022-12-13T11:31:34.115Z,25.42
2022-12-13T11:34:47.342Z,20.70
2022-12-13T11:38:02.076Z,17.65
2022-12-13T11:40:55.138Z,21.58
2022-12-13T11:43:49.392Z,22.63
2022-12-13T11:46:45.026Z,29.85
2022-12-13T11:49:38.105Z,28.15
2022-12-13T11:52:32.390Z,23.98
2022-12-13T11:55:42.170Z,34.85
2022-12-13T11:59:13.415Z,23.83
2022-12-13T12:02:16.733Z,31.50
2022-12-13T12:05:11.152Z,31.45
2022-12-13T12:08:33.482Z,25.60
2022-12-13T12:11:57.103Z,24.10
2022-12-13T12:15:26.864Z,23.95
2022-12-13T12:18:09.355Z,28.85
2022-12-13T12:21:18.003Z,24.17
2022-12-13T12:24:19.083Z,27.63
2022-12-13T12:27:48.779Z,26.67
2022-12-13T12:30:36.118Z,31.63
2022-12-13T12:33:29.422Z,28.85
2022-12-13T12:36:33.090Z,35.83
2022-12-13T12:39:47.565Z,33.17
2022-12-13T12:43:19.109Z,30.30
2022-12-13T12:46:17.597Z,39.03
2022-12-13T12:49:30.156Z,38.10
2022-12-13T12:52:26.362Z,37.60
2022-12-13T12:55:28.042Z,32.08
2022-12-13T12:58:19.550Z,31.38
2022-12-13T13:01:11.040Z,30.02
2022-12-13T13:04:03.060Z,32.53
2022-12-13T13:07:03.376Z,30.63
2022-12-13T13:09:47.052Z,26.23
2022-12-13T13:12:43.034Z,33.08
2022-12-13T13:15:40.186Z,31.48
2022-12-13T13:18:59.310Z,36.17
2022-12-13T13:22:31.101Z,36.05
2022-12-13T13:26:16.386Z,46.78
2022-12-13T13:28:58.110Z,40.00
2022-12-13T13:32:29.061Z,37.78
2022-12-13T13:35:33.305Z,41.03
2022-12-13T13:38:31.075Z,45.33
2022-12-13T13:41:57.059Z,43.97
2022-12-13T13:44:57.484Z,41.60
2022-12-13T13:47:47.001Z,37.20
2022-12-13T13:50:44.376Z,40.92
2022-12-13T13:53:58.964Z,54.58
2022-12-13T13:57:06.000Z,58.45
2022-12-13T14:00:12.102Z,63.25
2022-12-13T14:03:59.236Z,64.55
2022-12-13T14:07:00.932Z,52.30
2022-12-13T14:10:09.115Z,49.25
2022-12-13T14:13:18.986Z,55.90
2022-12-13T14:16:29.243Z,47.65
2022-12-13T14:20:11.038Z,49.35
2022-12-13T14:23:08.042Z,60.45
2022-12-13T14:26:26.556Z,48.90
2022-12-13T14:29:25.129Z,60.75
2022-12-13T14:32:07.421Z,73.28
2022-12-13T14:34:56.005Z,60.88
2022-12-13T14:37:43.124Z,58.22
2022-12-13T14:40:35.055Z,63.40
2022-12-13T14:43:56.934Z,61.10
2022-12-13T14:46:45.442Z,79.80
2022-12-13T14:49:29.072Z,69.80
2022-12-13T14:52:25.919Z,63.55
2022-12-13T14:55:18.004Z,56.78
2022-12-13T14:58:05.722Z,75.57
2022-12-13T15:00:58.978Z,67.95
2022-12-13T15:03:41.296Z,69.07
2022-12-13T15:06:32.075Z,78.13
2022-12-13T15:09:23.417Z,65.47
2022-12-13T15:12:24.455Z,73.68
2022-12-13T15:15:10.097Z,76.80
2022-12-13T15:17:59.484Z,69.25
2022-12-13T15:20:49.308Z,72.15
2022-12-13T15:23:49.152Z,64.43
2022-12-13T15:29:34.000Z,68.97
2022-12-13T15:32:20.191Z,65.95
2022-12-13T15:35:09.130Z,67.95
2022-12-13T15:37:51.462Z,64.97
2022-12-13T15:40:40.053Z,80.55
2022-12-13T15:43:37.966Z,74.18
2022-12-13T15:46:36.189Z,80.30
2022-12-13T15:49:37.488Z,78.20
2022-12-13T15:52:27.068Z,87.60
2022-12-13T15:55:19.453Z,90.82
2022-12-13T15:58:10.905Z,87.95
2022-12-13T16:00:57.496Z,98.63
2022-12-13T16:03:55.078Z,93.70
2022-12-13T16:06:39.561Z,92.63
2022-12-13T16:09:30.028Z,96.45
2022-12-13T16:12:15.350Z,100.45
2022-12-13T16:15:33.013Z,103.72
2022-12-13T16:18:26.527Z,92.22
2022-12-13T16:21:18.024Z,97.30
2022-12-13T16:24:00.995Z,94.13
2022-12-13T16:26:56.008Z,93.57
2022-12-13T16:29:38.414Z,93.53
2022-12-13T16:32:27.042Z,83.30
2022-12-13T16:35:09.562Z,106.55
2022-12-13T16:37:59.745Z,87.40
2022-12-13T16:40:57.909Z,89.00
2022-12-13T16:43:55.056Z,89.50
2022-12-13T16:47:11.779Z,84.00
2022-12-13T16:49:52.682Z,79.30
2022-12-13T16:52:36.033Z,74.40
2022-12-13T16:55:25.491Z,76.78
2022-12-13T16:58:10.053Z,83.43
2022-12-13T17:00:52.310Z,75.82
2022-12-13T17:03:48.080Z,84.65
2022-12-13T17:06:37.418Z,83.18
2022-12-13T17:09:20.052Z,90.63
2022-12-13T17:12:09.406Z,82.75
2022-12-13T17:14:51.070Z,82.18
2022-12-13T17:17:41.464Z,88.95
2022-12-13T17:20:26.103Z,91.30
2022-12-13T17:23:17.942Z,79.63
2022-12-13T17:26:00.001Z,72.63
2022-12-13T17:28:48.455Z,73.70
2022-12-13T17:31:35.632Z,76.95
2022-12-13T17:34:25.380Z,76.18
2022-12-13T17:37:10.643Z,73.25
2022-12-13T17:39:59.446Z,75.63
2022-12-13T17:42:43.086Z,74.68
2022-12-13T17:45:32.436Z,73.72
2022-12-13T17:48:14.884Z,79.70
2022-12-13T17:51:04.344Z,75.03
2022-12-13T17:53:50.945Z,81.28
2022-12-13T17:56:41.460Z,75.25
2022-12-13T17:59:23.998Z,78.70
2022-12-13T18:02:06.223Z,80.97
2022-12-13T18:04:54.952Z,74.40
2022-12-13T18:07:43.912Z,68.57
2022-12-13T18:10:33.486Z,79.50
2022-12-13T18:13:22.247Z,73.80
2022-12-13T18:16:05.544Z,84.25
2022-12-13T18:18:55.772Z,80.20
2022-12-13T18:21:38.246Z,72.57
2022-12-13T18:24:27.101Z,80.95
2022-12-13T18:27:09.383Z,76.15
2022-12-13T18:29:58.026Z,76.53
2022-12-13T18:32:43.881Z,73.10
2022-12-13T18:35:33.075Z,77.68
2022-12-13T18:38:14.954Z,72.93
2022-12-13T18:40:58.515Z,84.55
2022-12-13T18:44:10.024Z,76.40
2022-12-13T18:46:59.495Z,89.25
2022-12-13T18:49:41.985Z,73.13
2022-12-13T18:52:45.031Z,79.53
2022-12-13T18:55:27.941Z,70.63
2022-12-13T18:58:17.091Z,77.05
2022-12-13T19:00:59.444Z,87.30
2022-12-13T19:03:48.013Z,78.25
2022-12-13T19:06:33.350Z,79.80
2022-12-13T19:09:22.094Z,75.55
2022-12-13T19:12:04.498Z,79.78
2022-12-13T19:14:55.310Z,79.65
2022-12-13T19:17:37.586Z,69.28
2022-12-13T19:20:26.977Z,63.20
2022-12-13T19:23:09.369Z,66.63
2022-12-13T19:25:59.127Z,56.30
2022-12-13T19:28:45.372Z,56.90
2022-12-13T19:31:35.055Z,57.30
2022-12-13T19:34:18.017Z,56.20
2022-12-13T19:37:07.022Z,58.90
2022-12-13T19:39:49.211Z,49.30
2022-12-13T19:42:37.681Z,57.53
2022-12-13T19:45:25.954Z,44.08
2022-12-13T19:48:08.043Z,42.05
2022-12-13T19:50:57.072Z,37.83
2022-12-13T19:53:40.743Z,42.25
2022-12-13T19:56:31.035Z,38.88
2022-12-13T19:59:13.467Z,44.92
2022-12-13T20:02:01.794Z,35.63
2022-12-13T20:04:47.019Z,37.78
2022-12-13T20:07:35.997Z,44.00
2022-12-13T20:10:25.930Z,43.13
2022-12-13T20:13:15.078Z,48.85
2022-12-13T20:16:03.993Z,51.03
2022-12-13T20:18:54.003Z,48.25
2022-12-13T20:21:43.925Z,50.88
2022-12-13T20:24:27.159Z,51.63
2022-12-13T20:27:15.868Z,58.35
2022-12-13T20:30:05.348Z,53.30
2022-12-13T20:32:47.914Z,65.00
2022-12-13T20:38:39.017Z,70.65
2022-12-13T20:41:28.653Z,82.50
2022-12-13T20:44:20.969Z,74.70
2022-12-13T20:47:03.379Z,73.18
2022-12-13T20:49:51.919Z,70.30
2022-12-13T20:52:35.486Z,63.80
2022-12-13T20:55:29.013Z,72.43
2022-12-13T20:58:11.505Z,87.07
2022-12-13T21:00:59.875Z,73.60
2022-12-13T21:03:42.319Z,82.03
2022-12-13T21:06:31.073Z,74.22
2022-12-13T21:09:13.323Z,89.72
2022-12-13T21:12:01.843Z,85.95
2022-12-13T21:14:44.327Z,87.97
2022-12-13T21:17:32.853Z,97.07
2022-12-13T21:20:15.393Z,87.93
2022-12-13T21:23:04.006Z,100.00
2022-12-13T21:25:46.226Z,94.97
2022-12-13T21:28:37.031Z,88.10
2022-12-13T21:31:30.980Z,79.95
2022-12-13T21:34:20.402Z,84.60
2022-12-13T21:37:02.959Z,73.43
2022-12-13T21:39:45.114Z,70.97
2022-12-13T21:42:33.858Z,66.97
2022-12-13T21:45:28.958Z,66.18
2022-12-13T21:48:17.998Z,70.10
2022-12-13T21:51:00.496Z,67.05
2022-12-13T21:53:49.061Z,62.65
2022-12-13T21:56:58.984Z,59.30
2022-12-13T21:59:41.157Z,66.95
2022-12-13T22:02:31.932Z,70.07
2022-12-13T22:05:26.861Z,61.45
2022-12-13T22:08:09.169Z,59.03
2022-12-13T22:11:21.084Z,68.95
2022-12-13T22:14:03.250Z,75.45
2022-12-13T22:16:52.008Z,79.43
2022-12-13T22:19:40.868Z,71.05
2022-12-13T22:22:23.279Z,76.85
2022-12-13T22:25:11.913Z,61.40
2022-12-13T22:28:00.887Z,68.85
2022-12-13T22:30:50.224Z,53.13
2022-12-13T22:33:33.990Z,58.33
2022-12-13T22:36:16.463Z,90.40
2022-12-13T22:39:06.029Z,100.28
2022-12-13T22:41:49.098Z,76.10
2022-12-13T22:44:37.952Z,63.70
2022-12-13T22:47:26.972Z,69.63
2022-12-13T22:50:09.397Z,56.25
2022-12-13T22:52:57.947Z,51.95
2022-12-13T22:55:40.904Z,63.92
2022-12-13T22:58:30.089Z,47.30
2022-12-13T23:01:19.347Z,44.47
2022-12-13T23:04:09.027Z,53.17
2022-12-13T23:06:51.348Z,60.08
2022-12-13T23:09:39.993Z,45.55
2022-12-13T23:12:40.613Z,41.22
2022-12-13T23:15:29.983Z,47.58
2022-12-13T23:18:18.983Z,49.97
2022-12-13T23:21:07.931Z,44.60
2022-12-13T23:23:50.260Z,52.80
2022-12-13T23:26:40.888Z,42.00
2022-12-13T23:29:29.957Z,42.22
2022-12-13T23:32:19.212Z,51.20
2022-12-13T23:35:02.958Z,45.28
2022-12-13T23:37:45.185Z,45.58
2022-12-13T23:40:36.999Z,42.72
2022-12-13T23:43:31.862Z,46.15
2022-12-13T23:46:30.958Z,44.22
2022-12-13T23:49:19.223Z,49.03
2022-12-13T23:52:01.901Z,41.78
2022-12-13T23:54:50.249Z,41.10
2022-12-13T23:57:31.940Z,46.00
